createdAt,value
2016-11-22T00:03:07.390Z,79.88
2016-11-22T00:08:04.004Z,80.36
2016-11-22T00:13:00.605Z,81.51
2016-11-22T00:17:57.931Z,80.55
2016-11-22T00:22:55.434Z,81.89
2016-11-22T00:27:51.913Z,83.09
2016-11-22T00:32:48.141Z,83.38
2016-11-22T00:37:45.199Z,84.05
2016-11-22T00:42:41.831Z,81.85
2016-11-22T00:47:39.610Z,81.18
2016-11-22T00:52:35.875Z,79.94
2016-11-22T00:57:32.300Z,80.46
2016-11-22T01:02:29.142Z,79.36
2016-11-22T01:07:25.602Z,80.22
2016-11-22T01:12:22.176Z,80.41
2016-11-22T01:17:18.670Z,81.37
2016-11-22T01:22:15.145Z,82.42
2016-11-22T01:27:11.606Z,83.09
2016-11-22T01:32:08.034Z,83.34
2016-11-22T01:37:04.652Z,83.72
2016-11-22T01:42:01.197Z,82.67
2016-11-22T01:46:57.469Z,82.67
2016-11-22T01:51:54.151Z,83.34
2016-11-22T01:56:51.833Z,83.05
2016-11-22T02:01:48.053Z,81.62
2016-11-22T02:06:44.835Z,81.33
2016-11-22T02:11:41.452Z,80.41
2016-11-22T02:16:38.142Z,80.22
2016-11-22T02:21:34.201Z,80.22
2016-11-22T02:26:30.860Z,81.14
2016-11-22T02:31:27.318Z,81.14
2016-11-22T02:36:24.101Z,82.67
2016-11-22T02:41:20.500Z,82.19
2016-11-22T02:46:17.460Z,82.38
2016-11-22T02:51:14.019Z,82.29
2016-11-22T02:56:10.750Z,83.62
2016-11-22T03:01:07.726Z,83.77
2016-11-22T03:06:03.940Z,83.48
2016-11-22T03:11:00.590Z,83.87
2016-11-22T03:15:57.169Z,83.39
2016-11-22T03:20:53.684Z,84.25
2016-11-22T03:25:50.151Z,85.58
2016-11-22T03:30:46.753Z,86.54
2016-11-22T03:35:43.078Z,86.92
2016-11-22T03:40:41.415Z,87.26
2016-11-22T03:45:37.706Z,86.63
2016-11-22T03:50:36.922Z,87.16
2016-11-22T03:55:33.416Z,87.26
2016-11-22T04:00:29.638Z,86.88
2016-11-22T04:05:26.170Z,86.78
2016-11-22T04:10:23.038Z,86.88
2016-11-22T04:15:19.508Z,86.69
2016-11-22T04:20:16.564Z,86.02
2016-11-22T04:25:12.944Z,85.16
2016-11-22T04:30:09.742Z,85.25
2016-11-22T04:35:06.229Z,84.40
2016-11-22T04:40:03.345Z,84.59
2016-11-22T04:44:59.819Z,84.01
2016-11-22T04:49:56.358Z,83.06
2016-11-22T04:54:52.821Z,81.77
2016-11-22T04:59:49.753Z,83.11
2016-11-22T05:04:46.340Z,82.15
2016-11-22T05:09:42.981Z,81.44
2016-11-22T05:14:39.459Z,81.82
2016-11-22T05:19:35.988Z,81.73
2016-11-22T05:24:32.305Z,82.20
2016-11-22T05:29:28.827Z,81.92
2016-11-22T05:34:25.266Z,82.78
2016-11-22T05:39:22.732Z,82.30
2016-11-22T05:44:19.068Z,82.45
2016-11-22T05:49:15.390Z,82.35
2016-11-22T05:54:11.969Z,82.59
2016-11-22T05:59:08.481Z,82.40
2016-11-22T06:04:07.029Z,81.44
2016-11-22T06:09:03.158Z,81.25
2016-11-22T06:13:59.418Z,81.25
2016-11-22T06:18:56.454Z,81.25
2016-11-22T06:23:52.849Z,80.58
2016-11-22T06:28:49.495Z,81.30
2016-11-22T06:33:48.423Z,81.12
2016-11-22T06:38:44.236Z,81.21
2016-11-22T06:43:41.677Z,81.49
2016-11-22T06:48:38.284Z,80.54
2016-11-22T06:53:34.711Z,81.02
2016-11-22T06:58:31.193Z,80.83
2016-11-22T07:03:27.879Z,81.12
2016-11-22T07:08:24.487Z,80.54
2016-11-22T07:13:20.771Z,80.98
2016-11-22T07:18:17.319Z,80.64
2016-11-22T07:23:13.711Z,79.59
2016-11-22T07:28:10.143Z,80.26
2016-11-22T07:33:06.641Z,79.30
2016-11-22T07:38:03.357Z,78.20
2016-11-22T07:42:59.993Z,77.53
2016-11-22T07:47:56.013Z,77.62
2016-11-22T07:52:53.307Z,77.82
2016-11-22T07:57:49.923Z,78.10
2016-11-22T08:02:46.471Z,78.10
2016-11-22T08:07:43.370Z,78.67
2016-11-22T08:12:39.517Z,78.86
2016-11-22T08:17:36.235Z,78.86
2016-11-22T08:22:32.845Z,77.91
2016-11-22T08:27:29.689Z,78.01
2016-11-22T08:32:26.319Z,78.20
2016-11-22T08:37:22.872Z,78.20
2016-11-22T08:42:19.411Z,77.86
2016-11-22T08:47:15.919Z,77.57
2016-11-22T08:52:12.705Z,77.76
2016-11-22T08:57:09.397Z,76.71
2016-11-22T09:02:05.867Z,76.14
2016-11-22T09:07:02.339Z,75.98
2016-11-22T09:11:59.768Z,75.89
2016-11-22T09:16:56.818Z,75.98
2016-11-22T09:21:54.106Z,75.70
2016-11-22T09:26:50.667Z,76.62
2016-11-22T09:31:47.347Z,76.75
2016-11-22T09:36:44.025Z,76.14
2016-11-22T09:41:40.590Z,75.89
2016-11-22T09:46:37.112Z,75.32
2016-11-22T09:51:33.789Z,76.08
2016-11-22T09:56:30.472Z,76.27
2016-11-22T10:01:27.392Z,75.42
2016-11-22T10:06:24.412Z,74.30
2016-11-22T10:11:21.196Z,73.44
2016-11-22T10:16:17.932Z,72.58
2016-11-22T10:21:14.689Z,71.72
2016-11-22T10:26:11.699Z,71.57
2016-11-22T10:31:08.173Z,71.47
2016-11-22T10:36:05.059Z,71.47
2016-11-22T10:41:01.563Z,70.90
2016-11-22T10:45:58.057Z,71.28
2016-11-22T10:50:54.893Z,71.57
2016-11-22T10:55:51.890Z,71.28
2016-11-22T11:00:48.583Z,70.04
2016-11-22T11:05:45.510Z,70.14
2016-11-22T11:10:41.924Z,70.61
2016-11-22T11:15:38.404Z,71.57
2016-11-22T11:20:34.908Z,71.38
2016-11-22T11:25:31.468Z,71.47
2016-11-22T11:30:28.007Z,71.28
2016-11-22T11:35:24.705Z,70.07
2016-11-22T11:40:21.428Z,69.98
2016-11-22T11:45:18.619Z,69.70
2016-11-22T11:50:15.306Z,69.21
2016-11-22T11:55:12.386Z,68.74
2016-11-22T12:00:09.025Z,68.74
2016-11-22T12:05:05.822Z,69.41
2016-11-22T12:10:02.665Z,69.21
2016-11-22T12:14:59.109Z,69.09
2016-11-22T12:19:55.672Z,70.07
2016-11-22T12:24:52.203Z,69.70
2016-11-22T12:29:48.942Z,70.17
2016-11-22T12:34:45.603Z,70.14
2016-11-22T12:39:41.989Z,69.56
2016-11-22T12:44:40.030Z,70.33
2016-11-22T12:49:36.354Z,70.14
2016-11-22T12:54:32.629Z,70.14
2016-11-22T12:59:29.311Z,69.95
2016-11-22T13:04:25.974Z,70.23
2016-11-22T13:09:22.482Z,70.61
2016-11-22T13:14:19.708Z,70.90
2016-11-22T13:19:16.112Z,70.04
2016-11-22T13:24:14.086Z,70.14
2016-11-22T13:29:10.376Z,69.56
2016-11-22T13:34:08.023Z,70.33
2016-11-22T13:39:04.512Z,70.23
2016-11-22T13:44:01.005Z,70.42
2016-11-22T13:48:57.325Z,70.71
2016-11-22T13:53:53.467Z,71.47
2016-11-22T13:58:49.642Z,71.86
2016-11-22T14:03:46.049Z,71.82
2016-11-22T14:08:42.187Z,72.39
2016-11-22T14:13:39.221Z,72.39
2016-11-22T14:18:35.852Z,72.20
2016-11-22T14:23:32.216Z,73.16
2016-11-22T14:28:29.075Z,74.40
2016-11-22T14:33:26.564Z,74.98
2016-11-22T14:38:22.811Z,75.16
2016-11-22T14:43:19.086Z,76.18
2016-11-22T14:48:15.507Z,76.75
2016-11-22T14:53:13.151Z,76.46
2016-11-22T14:58:09.916Z,76.84
2016-11-22T15:03:08.265Z,77.13
2016-11-22T15:08:04.295Z,77.51
2016-11-22T15:13:00.718Z,78.28
2016-11-22T15:17:56.995Z,78.28
2016-11-22T15:22:53.341Z,78.43
2016-11-22T15:27:49.614Z,78.62
2016-11-22T15:32:46.211Z,79.19
2016-11-22T15:37:42.704Z,79.10
2016-11-22T15:42:39.144Z,79.67
2016-11-22T15:47:36.062Z,80.15
2016-11-22T15:52:33.593Z,80.33
2016-11-22T15:57:29.798Z,80.01
2016-11-22T16:02:26.456Z,80.91
2016-11-22T16:07:23.023Z,80.68
2016-11-22T16:12:19.416Z,81.06
2016-11-22T16:17:15.426Z,80.58
2016-11-22T16:22:12.406Z,81.35
2016-11-22T16:27:08.839Z,82.11
2016-11-22T16:32:05.326Z,81.73
2016-11-22T16:37:02.305Z,81.82
2016-11-22T16:41:58.805Z,81.35
2016-11-22T16:46:55.407Z,82.20
2016-11-22T16:51:51.829Z,82.11
2016-11-22T16:56:48.097Z,82.11
2016-11-22T17:01:44.987Z,82.87
2016-11-22T17:06:41.151Z,83.06
2016-11-22T17:11:37.884Z,83.25
2016-11-22T17:16:34.681Z,83.35
2016-11-22T17:21:31.418Z,83.64
2016-11-22T17:26:28.328Z,84.01
2016-11-22T17:31:24.920Z,84.83
2016-11-22T17:36:21.324Z,84.16
2016-11-22T17:41:17.846Z,84.36
2016-11-22T17:46:25.091Z,83.88
2016-11-22T17:51:20.285Z,84.55
2016-11-22T17:56:17.290Z,84.20
2016-11-22T18:01:13.844Z,84.59
2016-11-22T18:06:10.297Z,84.20
2016-11-22T18:11:06.865Z,84.20
2016-11-22T18:16:03.768Z,83.92
2016-11-22T18:21:00.362Z,83.83
2016-11-22T18:25:57.194Z,82.97
2016-11-22T18:30:53.687Z,83.44
2016-11-22T18:35:50.288Z,83.73
2016-11-22T18:40:47.022Z,83.54
2016-11-22T18:45:43.936Z,84.20
2016-11-22T18:50:40.395Z,85.16
2016-11-22T18:55:36.752Z,86.02
2016-11-22T19:00:33.949Z,86.83
2016-11-22T19:05:30.361Z,86.55
2016-11-22T19:10:27.214Z,89.12
2016-11-22T19:15:24.026Z,90.64
2016-11-22T19:20:20.517Z,92.08
2016-11-22T19:25:16.872Z,93.03
2016-11-22T19:30:13.611Z,94.84
2016-11-22T19:35:10.207Z,95.17
2016-11-22T19:40:06.335Z,95.56
2016-11-22T19:45:02.758Z,95.84
2016-11-22T19:49:59.314Z,96.12
2016-11-22T19:54:56.330Z,96.41
2016-11-22T19:59:52.769Z,96.32
2016-11-22T20:04:49.161Z,97.65
2016-11-22T20:09:45.887Z,98.22
2016-11-22T20:14:42.351Z,98.60
2016-11-22T20:19:38.775Z,99.55
2016-11-22T20:24:35.233Z,99.99
2016-11-22T20:29:31.681Z,99.99
2016-11-22T20:34:27.907Z,99.99
2016-11-22T20:39:25.330Z,99.99
2016-11-22T20:44:21.678Z,99.99
2016-11-22T20:49:18.171Z,99.99
2016-11-22T20:54:14.853Z,99.99
2016-11-22T20:59:11.414Z,99.99
2016-11-22T21:04:07.859Z,99.99
2016-11-22T21:09:04.218Z,99.99
2016-11-22T21:14:00.653Z,99.99
2016-11-22T21:18:57.011Z,99.99
2016-11-22T21:23:53.309Z,99.99
2016-11-22T21:28:49.693Z,99.99
2016-11-22T21:33:47.329Z,99.99
2016-11-22T21:38:43.572Z,99.99
2016-11-22T21:43:40.144Z,99.99
2016-11-22T21:48:36.662Z,99.99
2016-11-22T21:53:33.148Z,99.99
2016-11-22T21:58:29.910Z,99.99
2016-11-22T22:03:26.327Z,99.99
2016-11-22T22:08:22.955Z,99.99
2016-11-22T22:13:19.714Z,99.99
2016-11-22T22:18:16.804Z,99.99
2016-11-22T22:23:12.952Z,99.99
2016-11-22T22:28:09.349Z,99.99
2016-11-22T22:33:05.940Z,99.99
2016-11-22T22:38:02.407Z,99.99
2016-11-22T22:42:59.556Z,99.99
2016-11-22T22:47:56.059Z,99.99
2016-11-22T22:52:52.781Z,99.99
2016-11-22T22:57:49.295Z,99.99
2016-11-22T23:02:45.807Z,99.99
2016-11-22T23:07:42.906Z,99.99
2016-11-22T23:12:38.735Z,99.99
2016-11-22T23:17:35.437Z,99.99
2016-11-22T23:22:31.779Z,99.99
2016-11-22T23:27:29.094Z,99.99
2016-11-22T23:32:25.737Z,99.99
2016-11-22T23:37:22.880Z,99.99
2016-11-22T23:42:19.313Z,99.99
2016-11-22T23:47:15.773Z,99.99
2016-11-22T23:52:12.964Z,99.99
2016-11-22T23:57:10.597Z,99.99
